createdAt,value
2022-11-02T00:00:20.396Z,98155.13
2022-11-02T00:02:47.153Z,98154.41
2022-11-02T00:05:14.884Z,98157.78
2022-11-02T00:07:41.945Z,98154.28
2022-11-02T00:10:10.997Z,98159.09
2022-11-02T00:12:37.767Z,98152.72
2022-11-02T00:15:05.150Z,98155.50
2022-11-02T00:17:32.438Z,98158.16
2022-11-02T00:19:59.497Z,98165.75
2022-11-02T00:22:27.015Z,98156.81
2022-11-02T00:24:54.013Z,98157.78
2022-11-02T00:27:20.757Z,98157.41
2022-11-02T00:29:47.444Z,98156.91
2022-11-02T00:32:14.041Z,98156.41
2022-11-02T00:34:40.817Z,98165.53
2022-11-02T00:37:07.615Z,98168.44
2022-11-02T00:39:34.208Z,98167.09
2022-11-02T00:42:00.803Z,98163.72
2022-11-02T00:44:27.403Z,98162.41
2022-11-02T00:46:54.050Z,98164.56
2022-11-02T00:49:20.839Z,98163.97
2022-11-02T00:51:47.562Z,98163.25
2022-11-02T00:54:14.178Z,98162.63
2022-11-02T00:56:40.804Z,98172.28
2022-11-02T00:59:07.600Z,98161.91
2022-11-02T01:01:34.545Z,98166.72
2022-11-02T01:04:01.241Z,98170.84
2022-11-02T01:06:28.337Z,98169.50
2022-11-02T01:08:55.655Z,98176.47
2022-11-02T01:11:24.244Z,98175.88
2022-11-02T01:13:52.224Z,98183.38
2022-11-02T01:16:19.300Z,98186.22
2022-11-02T01:18:46.102Z,98191.06
2022-11-02T01:21:12.804Z,98185.50
2022-11-02T01:23:39.608Z,98190.34
2022-11-02T01:26:08.705Z,98188.28
2022-11-02T01:28:36.283Z,98184.69
2022-11-02T01:31:03.214Z,98193.13
2022-11-02T01:33:29.788Z,98186.84
2022-11-02T01:35:56.856Z,98184.78
2022-11-02T01:38:24.106Z,98183.38
2022-11-02T01:40:51.184Z,98183.38
2022-11-02T01:43:32.171Z,98186.84
2022-11-02T01:46:05.472Z,98200.72
2022-11-02T01:49:03.992Z,98194.44
2022-11-02T01:51:38.872Z,98199.28
2022-11-02T01:54:10.985Z,98199.28
2022-11-02T01:56:40.117Z,98201.34
2022-11-02T01:59:13.168Z,98203.38
2022-11-02T02:01:40.070Z,98204.09
2022-11-02T02:04:06.782Z,98200.50
2022-11-02T02:06:33.742Z,98201.84
2022-11-02T02:09:04.422Z,98208.69
2022-11-02T02:11:37.341Z,98203.84
2022-11-02T02:14:14.467Z,98200.28
2022-11-02T02:17:14.497Z,98219.69
2022-11-02T02:20:11.248Z,98211.94
2022-11-02T02:23:33.636Z,98204.88
2022-11-02T02:26:40.245Z,98203.41
2022-11-02T02:29:21.229Z,98208.94
2022-11-02T02:32:15.186Z,98210.28
2022-11-02T02:35:13.975Z,98215.84
2022-11-02T02:37:49.895Z,98211.63
2022-11-02T02:40:26.912Z,98210.91
2022-11-02T02:42:57.263Z,98206.69
2022-11-02T02:45:37.585Z,98210.78
2022-11-02T02:48:16.717Z,98205.84
2022-11-02T02:50:49.032Z,98202.34
2022-11-02T02:53:16.549Z,98209.94
2022-11-02T02:55:48.473Z,98208.50
2022-11-02T02:58:23.617Z,98211.88
2022-11-02T03:00:53.039Z,98218.16
2022-11-02T03:03:23.992Z,98207.06
2022-11-02T03:06:24.759Z,98207.66
2022-11-02T03:09:19.104Z,98206.94
2022-11-02T03:12:59.576Z,98211.63
2022-11-02T03:15:44.004Z,98210.91
2022-11-02T03:18:25.351Z,98217.19
2022-11-02T03:21:40.493Z,98212.25
2022-11-02T03:24:23.369Z,98219.13
2022-11-02T03:27:26.631Z,98214.91
2022-11-02T03:30:15.775Z,98209.97
2022-11-02T03:44:27.792Z,98221.75
2022-11-02T03:47:00.107Z,98218.59
2022-11-02T03:49:29.936Z,98220.88
2022-11-02T03:52:01.978Z,98218.22
2022-11-02T03:55:09.100Z,98221.84
2022-11-02T03:57:44.091Z,98226.03
2022-11-02T04:00:14.123Z,98225.44
2022-11-02T04:02:44.849Z,98225.44
2022-11-02T04:05:11.604Z,98227.59
2022-11-02T04:07:59.839Z,98227.59
2022-11-02T04:10:26.688Z,98233.28
2022-11-02T04:13:11.729Z,98224.22
2022-11-02T04:15:38.595Z,98226.28
2022-11-02T04:18:23.696Z,98229.78
2022-11-02T04:20:51.090Z,98229.16
2022-11-02T04:23:37.257Z,98236.03
2022-11-02T04:26:05.126Z,98234.72
2022-11-02T04:28:31.769Z,98234.72
2022-11-02T04:31:00.105Z,98235.44
2022-11-02T04:33:32.808Z,98234.72
2022-11-02T04:36:01.571Z,98238.19
2022-11-02T04:38:41.900Z,98236.75
2022-11-02T04:41:32.904Z,98245.78
2022-11-02T04:44:00.164Z,98240.25
2022-11-02T04:46:32.074Z,98238.91
2022-11-02T04:48:58.884Z,98236.75
2022-11-02T04:51:27.607Z,98237.38
2022-11-02T04:53:55.686Z,98238.09
2022-11-02T04:56:22.597Z,98242.31
2022-11-02T04:58:59.835Z,98247.13
2022-11-02T05:01:28.952Z,98245.09
2022-11-02T05:03:56.433Z,98256.16
2022-11-02T05:06:24.158Z,98251.25
2022-11-02T05:08:50.894Z,98257.50
2022-11-02T05:11:18.097Z,98258.22
2022-11-02T05:13:45.491Z,98261.72
2022-11-02T05:16:14.926Z,98262.56
2022-11-02T05:18:41.788Z,98259.41
2022-11-02T05:21:10.053Z,98267.44
2022-11-02T05:23:37.042Z,98269.38
2022-11-02T05:26:07.025Z,98271.16
2022-11-02T05:28:33.678Z,98270.16
2022-11-02T05:31:02.136Z,98276.78
2022-11-02T05:33:30.960Z,98265.91
2022-11-02T05:35:59.304Z,98275.88
2022-11-02T05:38:27.509Z,98277.56
2022-11-02T05:40:55.830Z,98284.66
2022-11-02T05:43:22.628Z,98288.38
2022-11-02T05:45:56.481Z,98289.94
2022-11-02T05:48:24.503Z,98294.25
2022-11-02T05:50:59.329Z,98296.41
2022-11-02T05:53:27.055Z,98293.75
2022-11-02T05:55:58.689Z,98302.06
2022-11-02T05:58:26.146Z,98307.75
2022-11-02T06:00:53.188Z,98309.09
2022-11-02T06:03:20.935Z,98311.84
2022-11-02T06:05:47.610Z,98309.81
2022-11-02T06:08:14.360Z,98316.78
2022-11-02T06:10:43.259Z,98317.50
2022-11-02T06:13:10.277Z,98319.69
2022-11-02T06:15:36.982Z,98322.47
2022-11-02T06:18:03.858Z,98323.19
2022-11-02T06:20:30.546Z,98322.56
2022-11-02T06:22:57.442Z,98325.34
2022-11-02T06:25:24.211Z,98337.28
2022-11-02T06:27:53.093Z,98336.56
2022-11-02T06:30:19.826Z,98340.06
2022-11-02T06:32:48.244Z,98341.50
2022-11-02T06:35:15.882Z,98344.88
2022-11-02T06:37:42.478Z,98344.16
2022-11-02T06:40:10.778Z,98337.16
2022-11-02T06:42:44.841Z,98344.78
2022-11-02T06:45:17.480Z,98353.81
2022-11-02T06:47:44.254Z,98351.66
2022-11-02T06:50:10.894Z,98347.44
2022-11-02T06:52:43.182Z,98355.78
2022-11-02T06:55:09.660Z,98348.03
2022-11-02T06:57:37.406Z,98360.50
2022-11-02T07:00:05.974Z,98363.13
2022-11-02T07:02:32.892Z,98361.72
2022-11-02T07:04:59.835Z,98365.19
2022-11-02T07:07:26.465Z,98369.31
2022-11-02T07:09:53.248Z,98368.47
2022-11-02T07:12:23.027Z,98371.25
2022-11-02T07:14:49.948Z,98367.75
2022-11-02T07:17:16.775Z,98368.38
2022-11-02T07:19:43.481Z,98366.91
2022-11-02T07:22:10.136Z,98368.97
2022-11-02T07:24:36.910Z,98377.28
2022-11-02T07:27:03.621Z,98374.53
2022-11-02T07:29:30.214Z,98376.56
2022-11-02T07:31:56.927Z,98373.72
2022-11-02T07:34:23.753Z,98374.44
2022-11-02T07:36:50.599Z,98377.19
2022-11-02T07:39:18.876Z,98371.66
2022-11-02T07:41:50.819Z,98367.41
2022-11-02T07:44:18.421Z,98358.38
2022-11-02T07:46:45.296Z,98368.16
2022-11-02T07:49:12.109Z,98367.41
2022-11-02T07:51:38.698Z,98363.19
2022-11-02T07:54:05.458Z,98371.66
2022-11-02T07:56:32.251Z,98378.50
2022-11-02T07:58:58.863Z,98383.34
2022-11-02T08:01:25.450Z,98378.50
2022-11-02T08:03:52.145Z,98383.56
2022-11-02T08:06:18.772Z,98379.69
2022-11-02T08:08:45.431Z,98382.81
2022-11-02T08:11:12.241Z,98392.09
2022-11-02T08:13:39.093Z,98393.03
2022-11-02T08:16:06.110Z,98396.66
2022-11-02T08:18:32.962Z,98387.69
2022-11-02T08:20:59.880Z,98387.91
2022-11-02T08:23:27.343Z,98388.63
2022-11-02T08:25:55.172Z,98381.75
2022-11-02T08:28:25.004Z,98388.75
2022-11-02T08:30:52.423Z,98388.75
2022-11-02T08:33:21.246Z,98380.31
2022-11-02T08:35:48.934Z,98378.88
2022-11-02T08:38:16.504Z,98382.97
2022-11-02T08:40:43.503Z,98388.53
2022-11-02T08:43:12.969Z,98378.78
2022-11-02T08:48:28.572Z,98393.38
2022-11-02T08:50:56.226Z,98402.41
2022-11-02T08:53:22.909Z,98401.69
2022-11-02T08:55:49.506Z,98390.59
2022-11-02T08:58:16.199Z,98400.38
2022-11-02T09:00:51.764Z,98401.09
2022-11-02T09:03:25.014Z,98398.31
2022-11-02T09:05:58.208Z,98400.38
2022-11-02T09:08:25.515Z,98396.97
2022-11-02T09:10:52.561Z,98405.91
2022-11-02T09:13:25.234Z,98410.13
2022-11-02T09:15:54.224Z,98403.38
2022-11-02T09:18:21.232Z,98408.41
2022-11-02T09:20:48.724Z,98410.72
2022-11-02T09:23:19.422Z,98412.28
2022-11-02T09:25:46.252Z,98418.69
2022-11-02T09:28:14.023Z,98413.13
2022-11-02T09:30:40.609Z,98411.66
2022-11-02T09:33:07.471Z,98416.63
2022-11-02T09:35:41.451Z,98413.13
2022-11-02T09:38:08.283Z,98422.16
2022-11-02T09:40:44.336Z,98422.16
2022-11-02T09:43:32.611Z,98416.00
2022-11-02T09:46:12.340Z,98422.25
2022-11-02T09:49:04.923Z,98417.47
2022-11-02T09:51:36.286Z,98415.41
2022-11-02T09:54:28.899Z,98424.44
2022-11-02T09:56:57.738Z,98426.59
2022-11-02T09:59:26.837Z,98438.44
2022-11-02T10:02:32.440Z,98436.38
2022-11-02T10:05:41.634Z,98434.34
2022-11-02T10:08:40.781Z,98435.78
2022-11-02T10:11:17.361Z,98437.22
2022-11-02T10:13:56.656Z,98440.72
2022-11-02T10:16:53.282Z,98435.78
2022-11-02T10:19:23.926Z,98431.66
2022-11-02T10:21:57.780Z,98436.63
2022-11-02T10:24:45.944Z,98428.28
2022-11-02T10:27:20.220Z,98434.16
2022-11-02T10:30:03.613Z,98421.81
2022-11-02T10:32:32.454Z,98424.09
2022-11-02T10:35:17.515Z,98432.66
2022-11-02T10:38:14.949Z,98429.47
2022-11-02T10:55:26.593Z,98415.50
2022-11-02T10:57:56.183Z,98411.38
2022-11-02T11:00:36.809Z,98417.06
2022-11-02T11:03:16.379Z,98415.00
2022-11-02T11:06:02.049Z,98405.94
2022-11-02T11:11:27.921Z,98396.66
2022-11-02T11:19:51.548Z,98410.31
2022-11-02T11:22:38.608Z,98404.06
2022-11-02T11:25:27.818Z,98412.38
2022-11-02T11:27:59.041Z,98410.22
2022-11-02T11:30:59.505Z,98403.25
2022-11-02T11:33:21.011Z,98402.63
2022-11-02T11:35:50.035Z,98406.75
2022-11-02T11:38:21.264Z,98399.00
2022-11-02T11:40:54.021Z,98396.22
2022-11-02T11:43:23.944Z,98397.69
2022-11-02T11:46:08.092Z,98389.94
2022-11-02T11:48:50.267Z,98392.72
2022-11-02T11:51:51.593Z,98380.88
2022-11-02T11:54:31.387Z,98384.38
2022-11-02T11:57:00.099Z,98376.69
2022-11-02T11:59:49.603Z,98377.41
2022-11-02T12:02:32.431Z,98367.00
2022-11-02T12:05:28.296Z,98364.22
2022-11-02T12:08:22.349Z,98362.06
2022-11-02T12:11:36.841Z,98370.41
2022-11-02T12:15:02.547Z,98367.63
2022-11-02T12:17:54.956Z,98359.16
2022-11-02T12:21:04.237Z,98360.38
2022-11-02T12:24:01.309Z,98358.44
2022-11-02T12:26:59.720Z,98354.94
2022-11-02T12:30:00.500Z,98356.28
2022-11-02T12:33:04.051Z,98357.59
2022-11-02T12:36:06.353Z,98357.53
2022-11-02T12:39:08.917Z,98346.41
2022-11-02T13:22:38.223Z,98327.56
2022-11-02T13:25:21.345Z,98331.78
2022-11-02T13:27:55.173Z,98322.72
2022-11-02T13:30:21.726Z,98326.25
2022-11-02T13:33:04.838Z,98333.22
2022-11-02T13:35:37.734Z,98336.00
2022-11-02T13:38:51.588Z,98335.28
2022-11-02T13:41:58.884Z,98342.03
2022-11-02T13:45:14.164Z,98331.66
2022-11-02T13:48:32.023Z,98326.31
2022-11-02T13:51:04.859Z,98330.03
2022-11-02T13:53:38.592Z,98325.50
2022-11-02T13:56:11.550Z,98330.03
2022-11-02T13:58:46.794Z,98332.41
2022-11-02T14:01:17.840Z,98327.06
2022-11-02T14:04:11.459Z,98323.66
2022-11-02T14:06:58.979Z,98315.44
2022-11-02T14:09:34.474Z,98314.19
2022-11-02T14:12:41.200Z,98321.91
2022-11-02T14:15:38.243Z,98321.19
2022-11-02T14:18:15.664Z,98326.25
2022-11-02T14:20:46.484Z,98318.63
2022-11-02T14:23:36.139Z,98333.97
2022-11-02T14:26:02.777Z,98329.13
2022-11-02T14:28:43.055Z,98333.88
2022-11-02T14:31:38.960Z,98340.06
2022-11-02T14:34:33.166Z,98337.16
2022-11-02T14:37:35.534Z,98348.28
2022-11-02T14:40:28.030Z,98341.88
2022-11-02T14:43:56.101Z,98346.00
2022-11-02T14:46:59.608Z,98356.41
2022-11-02T14:49:32.296Z,98352.91
2022-11-02T14:52:27.970Z,98351.44
2022-11-02T14:55:23.693Z,98345.16
2022-11-02T14:58:15.395Z,98345.09
2022-11-02T15:01:13.406Z,98345.69
2022-11-02T15:03:42.289Z,98347.75
2022-11-02T15:06:28.217Z,98353.94
2022-11-02T15:08:57.725Z,98360.09
2022-11-02T15:11:57.760Z,98363.50
2022-11-02T15:14:59.031Z,98366.16
2022-11-02T15:18:07.158Z,98360.50
2022-11-02T15:20:33.929Z,98362.56
2022-11-02T15:23:30.076Z,98356.91
2022-11-02T15:25:59.349Z,98356.91
2022-11-02T15:28:29.682Z,98354.03
2022-11-02T15:30:59.875Z,98354.63
2022-11-02T15:33:36.538Z,98349.06
2022-11-02T15:36:06.468Z,98355.97
2022-11-02T15:38:39.432Z,98351.13
2022-11-02T15:41:44.382Z,98348.84
2022-11-02T15:44:30.808Z,98347.31
2022-11-02T15:47:37.397Z,98347.22
2022-11-02T15:50:34.996Z,98352.53
2022-11-02T15:53:49.953Z,98342.03
2022-11-02T15:57:05.375Z,98350.25
2022-11-02T15:59:49.512Z,98357.16
2022-11-02T16:02:46.573Z,98356.34
2022-11-02T16:05:23.827Z,98363.13
2022-11-02T16:10:39.546Z,98353.81
2022-11-02T16:13:20.668Z,98363.50
2022-11-02T16:15:49.165Z,98364.81
2022-11-02T16:18:43.172Z,98365.41
2022-11-02T16:21:16.220Z,98370.88
2022-11-02T16:23:47.486Z,98373.53
2022-11-02T16:26:21.901Z,98373.53
2022-11-02T16:28:51.432Z,98377.66
2022-11-02T16:31:23.025Z,98378.88
2022-11-02T16:33:54.378Z,98378.03
2022-11-02T16:36:27.075Z,98387.69
2022-11-02T16:39:25.165Z,98385.63
2022-11-02T16:41:55.689Z,98379.28
2022-11-02T16:44:28.403Z,98382.03
2022-11-02T16:47:17.049Z,98378.66
2022-11-02T16:50:20.070Z,98379.88
2022-11-02T16:52:55.375Z,98378.44
2022-11-02T16:55:45.510Z,98382.53
2022-11-02T16:58:21.257Z,98391.47
2022-11-02T17:00:57.256Z,98385.91
2022-11-02T17:03:30.604Z,98387.13
2022-11-02T17:05:59.818Z,98385.69
2022-11-02T17:08:35.480Z,98395.97
2022-11-02T17:11:05.567Z,98401.41
2022-11-02T17:13:36.621Z,98392.97
2022-11-02T17:16:06.544Z,98392.88
2022-11-02T17:18:33.129Z,98394.19
2022-11-02T17:21:29.675Z,98392.63
2022-11-02T17:23:58.364Z,98391.19
2022-11-02T17:26:31.188Z,98387.91
2022-11-02T17:29:30.867Z,98384.63
2022-11-02T17:32:00.777Z,98389.59
2022-11-02T17:34:28.161Z,98391.75
2022-11-02T17:36:55.051Z,98390.41
2022-11-02T17:39:21.660Z,98393.31
2022-11-02T17:42:12.386Z,98386.53
2022-11-02T17:44:39.393Z,98389.41
2022-11-02T17:47:11.396Z,98395.19
2022-11-02T17:49:38.005Z,98387.69
2022-11-02T17:52:05.133Z,98393.47
2022-11-02T17:54:31.744Z,98390.81
2022-11-02T17:57:01.877Z,98388.88
2022-11-02T17:59:29.008Z,98391.88
2022-11-02T18:01:55.713Z,98387.16
2022-11-02T18:04:22.376Z,98387.41
2022-11-02T18:06:48.994Z,98389.69
2022-11-02T18:09:19.236Z,98390.41
2022-11-02T18:11:46.419Z,98399.53
2022-11-02T18:14:15.674Z,98398.22
2022-11-02T18:16:43.385Z,98378.16
2022-11-02T18:19:10.164Z,98392.03
2022-11-02T18:21:36.980Z,98387.22
2022-11-02T18:24:03.805Z,98392.16
2022-11-02T18:26:30.407Z,98387.31
2022-11-02T18:28:57.577Z,98379.72
2022-11-02T18:31:24.558Z,98376.31
2022-11-02T18:33:53.047Z,98372.94
2022-11-02T18:36:20.068Z,98381.34
2022-11-02T18:38:46.707Z,98370.25
2022-11-02T18:41:32.059Z,98364.69
2022-11-02T18:44:05.551Z,98375.19
2022-11-02T18:46:34.931Z,98365.53
2022-11-02T18:49:02.106Z,98369.75
2022-11-02T18:51:28.883Z,98381.69
2022-11-02T18:54:00.789Z,98372.63
2022-11-02T18:56:27.508Z,98355.97
2022-11-02T18:58:55.499Z,98360.09
2022-11-02T19:01:24.164Z,98362.88
2022-11-02T19:03:56.605Z,98365.66
2022-11-02T19:06:43.180Z,98363.59
2022-11-02T19:09:21.446Z,98364.31
2022-11-02T19:12:01.540Z,98367.16
2022-11-02T19:14:29.944Z,98367.16
2022-11-02T19:16:56.540Z,98361.63
2022-11-02T19:19:23.336Z,98362.34
2022-11-02T19:21:50.012Z,98353.28
2022-11-02T19:24:16.738Z,98364.41
2022-11-02T19:26:43.314Z,98365.75
2022-11-02T19:29:10.004Z,98365.66
2022-11-02T19:31:36.793Z,98365.66
2022-11-02T19:34:04.187Z,98380.84
2022-11-02T19:36:32.740Z,98366.88
2022-11-02T19:39:00.207Z,98358.53
2022-11-02T19:41:27.030Z,98366.16
2022-11-02T19:43:53.853Z,98365.53
2022-11-02T19:46:22.072Z,98359.97
2022-11-02T19:48:49.117Z,98367.69
2022-11-02T19:51:20.890Z,98360.81
2022-11-02T19:53:52.387Z,98359.59
2022-11-02T19:56:20.370Z,98370.06
2022-11-02T19:58:49.079Z,98354.22
2022-11-02T20:01:17.938Z,98357.81
2022-11-02T20:03:46.280Z,98356.50
2022-11-02T20:06:33.004Z,98350.31
2022-11-02T20:09:01.754Z,98358.06
2022-11-02T20:11:28.897Z,98353.81
2022-11-02T20:14:00.160Z,98351.16
2022-11-02T20:16:27.371Z,98345.69
2022-11-02T20:18:54.575Z,98349.19
2022-11-02T20:21:33.301Z,98338.19
2022-11-02T20:24:01.218Z,98343.03
2022-11-02T20:26:38.199Z,98345.88
2022-11-02T20:29:06.421Z,98357.63
2022-11-02T20:31:38.537Z,98349.19
2022-11-02T20:34:08.225Z,98349.81
2022-11-02T20:36:35.198Z,98348.38
2022-11-02T20:39:04.736Z,98342.69
2022-11-02T20:41:31.684Z,98339.91
2022-11-02T20:43:58.251Z,98341.16
2022-11-02T20:46:43.297Z,98338.28
2022-11-02T20:49:22.290Z,98332.00
2022-11-02T20:51:56.116Z,98335.38
2022-11-02T20:54:22.941Z,98336.00
2022-11-02T20:56:50.427Z,98338.78
2022-11-02T20:59:17.932Z,98338.78
2022-11-02T21:01:45.370Z,98333.22
2022-11-02T21:04:18.597Z,98325.50
2022-11-02T21:06:47.178Z,98318.50
2022-11-02T21:09:13.770Z,98320.69
2022-11-02T21:11:59.187Z,98328.38
2022-11-02T21:14:25.795Z,98315.84
2022-11-02T21:16:52.377Z,98314.50
2022-11-02T21:19:19.084Z,98311.00
2022-11-02T21:21:45.923Z,98313.06
2022-11-02T21:24:12.635Z,98304.72
2022-11-02T21:26:39.472Z,98301.94
2022-11-02T21:29:06.125Z,98299.16
2022-11-02T21:31:32.792Z,98292.88
2022-11-02T21:33:59.611Z,98293.59
2022-11-02T21:36:26.157Z,98299.16
2022-11-02T21:38:53.060Z,98287.34
2022-11-02T21:41:22.219Z,98285.16
2022-11-02T21:43:52.017Z,98281.66
2022-11-02T21:46:19.829Z,98284.31
2022-11-02T21:48:47.173Z,98276.00
2022-11-02T21:51:19.625Z,98276.50
2022-11-02T21:53:47.714Z,98269.50
2022-11-02T21:56:19.904Z,98270.72
2022-11-02T21:58:47.692Z,98276.19
2022-11-02T22:01:39.191Z,98277.53
2022-11-02T22:04:07.208Z,98276.81
2022-11-02T22:06:34.861Z,98271.03
2022-11-02T22:09:02.240Z,98275.16
2022-11-02T22:11:29.215Z,98271.53
2022-11-02T22:13:57.952Z,98267.34
2022-11-02T22:16:27.923Z,98263.72
2022-11-02T22:18:57.010Z,98271.34
2022-11-02T22:21:25.032Z,98272.56
2022-11-02T22:23:51.978Z,98272.56
2022-11-02T22:26:23.451Z,98269.66
2022-11-02T22:28:50.988Z,98266.69
2022-11-02T22:31:29.705Z,98256.78
2022-11-02T22:33:58.539Z,98262.22
2022-11-02T22:36:27.445Z,98263.56
2022-11-02T22:38:56.198Z,98259.97
2022-11-02T22:41:31.208Z,98254.91
2022-11-02T22:44:04.778Z,98251.31
2022-11-02T22:46:35.139Z,98250.00
2022-11-02T22:49:02.789Z,98243.94
2022-11-02T22:51:31.374Z,98240.53
2022-11-02T22:54:01.564Z,98235.69
2022-11-02T22:56:28.240Z,98235.09
2022-11-02T22:58:54.843Z,98230.25
2022-11-02T23:01:23.993Z,98232.41
2022-11-02T23:03:51.193Z,98241.44
2022-11-02T23:06:21.279Z,98235.31
2022-11-02T23:08:48.978Z,98233.88
2022-11-02T23:11:23.870Z,98232.53
2022-11-02T23:14:02.169Z,98226.25
2022-11-02T23:16:36.818Z,98224.19
2022-11-02T23:19:28.991Z,98215.84
2022-11-02T23:22:16.497Z,98208.88
2022-11-02T23:25:04.410Z,98217.09
2022-11-02T23:27:33.224Z,98230.25
2022-11-02T23:30:18.527Z,98227.47
2022-11-02T23:32:45.199Z,98214.94
2022-11-02T23:35:30.253Z,98212.16
2022-11-02T23:38:04.659Z,98220.38
2022-11-02T23:40:32.325Z,98224.50
2022-11-02T23:42:59.061Z,98225.81
2022-11-02T23:45:25.862Z,98218.81
2022-11-02T23:48:00.099Z,98217.47
2022-11-02T23:50:48.538Z,98218.81
2022-11-02T23:53:35.876Z,98216.66
2022-11-02T23:56:21.308Z,98214.50
2022-11-02T23:58:47.981Z,98212.34
